Time;durP1;ratioP1;P1;durP2;ratioP2;P2;SDS_P1;SDS_P2;PMS_P1;PMS_P2;Temp;Humidity;BMP_temperature;BMP_pressure;BME280_temperature;BME280_humidity;BME280_pressure;Samples;Min_cycle;Max_cycle;Signal;HPM_P1;HPM_P2
2022/08/27 00:02:14;;;;;;;5.53;3.33;;;;;;;;;;4999211;28;22253;-35
2022/08/27 00:04:44;;;;;;;4.30;3.28;;;;;;;;;;5004514;28;20235;-39
2022/08/27 00:07:13;;;;;;;5.47;3.33;;;;;;;;;;4992744;28;20220;-36
2022/08/27 00:09:40;;;;;;;3.75;3.33;;;;;;;;;;5004467;28;20204;-37
2022/08/27 00:12:10;;;;;;;3.70;3.30;;;;;;;;;;4999076;28;20208;-36
2022/08/27 00:14:37;;;;;;;5.10;3.80;;;;;;;;;;4991818;28;20200;-36
2022/08/27 00:17:05;;;;;;;4.78;3.92;;;;;;;;;;5007612;28;20242;-32
2022/08/27 00:19:32;;;;;;;4.75;3.60;;;;;;;;;;5007276;28;20218;-36
2022/08/27 00:21:59;;;;;;;5.15;3.90;;;;;;;;;;4990971;28;20222;-40
2022/08/27 00:24:26;;;;;;;3.85;3.50;;;;;;;;;;5002275;28;20211;-36
2022/08/27 00:26:53;;;;;;;7.10;3.67;;;;;;;;;;5007695;28;20218;-31
2022/08/27 00:29:22;;;;;;;4.63;3.53;;;;;;;;;;4993940;28;20207;-36
2022/08/27 00:31:49;;;;;;;4.30;3.47;;;;;;;;;;4998868;28;20211;-41
2022/08/27 00:34:16;;;;;;;6.32;3.92;;;;;;;;;;5005750;28;20218;-41
2022/08/27 00:36:44;;;;;;;4.70;3.63;;;;;;;;;;5013013;28;20219;-35
2022/08/27 00:39:11;;;;;;;3.65;3.35;;;;;;;;;;5007923;28;20207;-37
2022/08/27 00:41:39;;;;;;;4.05;3.20;;;;;;;;;;5003628;28;20290;-38
2022/08/27 00:44:06;;;;;;;4.60;3.03;;;;;;;;;;5001711;28;20199;-43
2022/08/27 00:46:36;;;;;;;4.15;3.80;;;;;;;;;;5005010;28;20192;-38
2022/08/27 00:49:07;;;;;;;5.03;4.03;;;;;;;;;;5007502;28;20211;-35
2022/08/27 00:51:36;;;;;;;6.90;3.63;;;;;;;;;;5002409;28;20211;-37
2022/08/27 00:54:03;;;;;;;4.60;4.20;;;;;;;;;;5006387;28;20214;-35
2022/08/27 00:56:34;;;;;;;6.20;4.35;;;;;;;;;;4999758;28;20230;-39
2022/08/27 00:59:02;;;;;;;5.22;4.47;;;;;;;;;;5004168;28;20200;-40
2022/08/27 01:01:31;;;;;;;5.10;4.55;;;;;;;;;;4999073;28;20203;-36
2022/08/27 01:04:01;;;;;;;5.60;4.60;;;;;;;;;;5002763;28;20263;-43
2022/08/27 01:06:30;;;;;;;7.03;3.78;;;;;;;;;;4993705;28;20211;-40
2022/08/27 01:09:00;;;;;;;3.95;3.47;;;;;;;;;;5003253;28;20212;-41
2022/08/27 01:11:27;;;;;;;4.28;3.88;;;;;;;;;;4997019;28;20214;-34
2022/08/27 01:13:54;;;;;;;3.60;3.30;;;;;;;;;;4996085;28;20200;-42
2022/08/27 01:21:32;;;;;;;7.57;3.60;;;;;;;;;;4998649;28;20247;-40
2022/08/27 01:24:02;;;;;;;3.97;3.10;;;;;;;;;;4998879;28;20669;-41
2022/08/27 01:26:30;;;;;;;5.60;3.50;;;;;;;;;;4999093;28;20218;-43
2022/08/27 01:28:58;;;;;;;4.57;3.70;;;;;;;;;;4997431;28;20211;-42
2022/08/27 01:31:25;;;;;;;3.50;3.20;;;;;;;;;;4994206;28;20212;-43
2022/08/27 01:33:54;;;;;;;3.45;3.15;;;;;;;;;;4995217;28;20430;-41
2022/08/27 01:36:21;;;;;;;5.00;4.00;;;;;;;;;;5001127;28;20211;-41
2022/08/27 01:38:49;;;;;;;3.83;3.50;;;;;;;;;;4999047;28;20231;-41
2022/08/27 01:41:16;;;;;;;4.63;3.63;;;;;;;;;;4996426;28;20199;-41
2022/08/27 01:43:44;;;;;;;5.55;3.72;;;;;;;;;;4998362;28;20202;-42
2022/08/27 01:46:12;;;;;;;4.38;3.38;;;;;;;;;;5004960;28;20208;-42
2022/08/27 01:48:39;;;;;;;5.10;3.80;;;;;;;;;;4995494;28;20242;-44
2022/08/27 01:51:07;;;;;;;4.75;3.90;;;;;;;;;;5002250;28;20403;-44
2022/08/27 01:53:34;;;;;;;3.75;3.20;;;;;;;;;;4994016;28;20211;-43
2022/08/27 01:56:02;;;;;;;4.45;3.40;;;;;;;;;;5000379;28;20208;-41
2022/08/27 01:58:30;;;;;;;3.58;3.08;;;;;;;;;;4999102;28;20234;-40
2022/08/27 02:01:01;;;;;;;4.15;3.55;;;;;;;;;;4992162;28;20211;-44
2022/08/27 02:03:29;;;;;;;4.35;3.63;;;;;;;;;;5006592;28;20239;-34
2022/08/27 02:05:56;;;;;;;4.53;3.67;;;;;;;;;;5001332;28;20205;-43
2022/08/27 02:08:23;;;;;;;4.82;3.92;;;;;;;;;;4994068;28;20237;-43
2022/08/27 02:10:50;;;;;;;5.55;3.17;;;;;;;;;;5005393;28;20211;-46
2022/08/27 02:13:18;;;;;;;4.13;3.45;;;;;;;;;;5003786;28;20202;-42
2022/08/27 02:15:45;;;;;;;3.75;3.35;;;;;;;;;;4991583;28;20632;-43
2022/08/27 02:18:14;;;;;;;4.77;3.93;;;;;;;;;;4990961;28;20231;-36
2022/08/27 02:20:41;;;;;;;3.43;3.13;;;;;;;;;;5006211;28;20211;-43
2022/08/27 02:23:09;;;;;;;3.78;3.47;;;;;;;;;;4998124;28;20583;-41
2022/08/27 02:25:36;;;;;;;3.75;3.40;;;;;;;;;;5003684;28;20334;-43
2022/08/27 02:28:04;;;;;;;3.78;3.40;;;;;;;;;;4999592;28;20223;-42
2022/08/27 02:30:33;;;;;;;4.80;3.60;;;;;;;;;;4995669;28;20207;-40
2022/08/27 02:33:00;;;;;;;3.88;3.55;;;;;;;;;;5007864;28;20207;-43
2022/08/27 02:35:29;;;;;;;3.83;3.40;;;;;;;;;;5010852;28;20207;-40
2022/08/27 02:37:57;;;;;;;4.20;3.80;;;;;;;;;;5007776;28;20226;-40
2022/08/27 02:40:25;;;;;;;4.18;3.63;;;;;;;;;;5004872;28;20204;-41
2022/08/27 02:42:52;;;;;;;3.70;3.40;;;;;;;;;;5000636;28;20202;-42
2022/08/27 02:45:19;;;;;;;4.60;3.63;;;;;;;;;;4993863;28;20212;-42
2022/08/27 02:47:47;;;;;;;4.07;3.58;;;;;;;;;;4995139;28;20227;-42
2022/08/27 02:50:15;;;;;;;6.72;3.90;;;;;;;;;;4990945;28;20294;-43
2022/08/27 02:52:44;;;;;;;3.53;3.22;;;;;;;;;;4991648;28;20218;-41
2022/08/27 02:55:11;;;;;;;3.60;3.30;;;;;;;;;;5000755;28;20576;-43
2022/08/27 02:57:39;;;;;;;5.63;4.05;;;;;;;;;;5005657;28;20226;-41
2022/08/27 03:00:07;;;;;;;3.88;3.58;;;;;;;;;;4994438;28;20204;-42
2022/08/27 03:02:34;;;;;;;5.13;3.78;;;;;;;;;;4995063;28;20226;-39
2022/08/27 03:05:01;;;;;;;6.18;4.00;;;;;;;;;;5006705;28;20226;-43
2022/08/27 03:07:28;;;;;;;3.75;3.45;;;;;;;;;;5000315;28;20227;-43
2022/08/27 03:09:57;;;;;;;3.92;3.53;;;;;;;;;;4992939;28;20210;-41
2022/08/27 03:12:25;;;;;;;4.70;3.90;;;;;;;;;;4999313;28;20232;-39
2022/08/27 03:14:52;;;;;;;4.25;3.63;;;;;;;;;;5004728;28;20203;-40
2022/08/27 03:20:05;;;;;;;4.53;3.78;;;;;;;;;;5002988;28;20330;-42
2022/08/27 03:22:32;;;;;;;5.53;4.18;;;;;;;;;;4990343;28;20548;-43
2022/08/27 03:25:02;;;;;;;3.75;3.42;;;;;;;;;;4993284;28;20206;-43
2022/08/27 03:27:29;;;;;;;4.47;4.03;;;;;;;;;;5001182;28;20580;-40
2022/08/27 03:29:56;;;;;;;4.22;3.47;;;;;;;;;;4994109;28;20275;-44
2022/08/27 03:32:23;;;;;;;4.13;3.73;;;;;;;;;;5000113;28;20199;-40
2022/08/27 03:34:50;;;;;;;5.20;3.80;;;;;;;;;;4999320;28;20277;-40
2022/08/27 03:37:18;;;;;;;6.07;4.70;;;;;;;;;;4991399;28;20235;-39
2022/08/27 03:39:45;;;;;;;5.80;4.70;;;;;;;;;;5007922;28;20199;-40
2022/08/27 03:42:13;;;;;;;4.13;3.55;;;;;;;;;;4995054;28;20203;-43
2022/08/27 03:44:40;;;;;;;4.72;4.10;;;;;;;;;;4997837;28;20306;-43
2022/08/27 03:47:07;;;;;;;6.70;3.90;;;;;;;;;;4993450;28;20235;-41
2022/08/27 03:49:35;;;;;;;4.30;3.90;;;;;;;;;;4993564;28;20283;-39
2022/08/27 03:52:02;;;;;;;4.57;3.80;;;;;;;;;;4989191;28;20283;-42
2022/08/27 03:54:30;;;;;;;4.38;3.97;;;;;;;;;;5002302;28;20199;-41
2022/08/27 03:56:57;;;;;;;4.63;4.22;;;;;;;;;;5008009;28;20227;-47
2022/08/27 03:59:25;;;;;;;4.80;3.73;;;;;;;;;;5001059;28;20231;-43
2022/08/27 04:01:52;;;;;;;4.38;3.97;;;;;;;;;;4998816;28;20215;-40
2022/08/27 04:04:20;;;;;;;3.80;3.40;;;;;;;;;;5006812;28;20571;-44
2022/08/27 04:06:47;;;;;;;4.43;4.03;;;;;;;;;;4994484;28;20214;-43
2022/08/27 04:09:14;;;;;;;3.60;3.30;;;;;;;;;;4994811;28;20204;-42
2022/08/27 04:11:41;;;;;;;4.50;3.70;;;;;;;;;;4998185;28;20202;-39
2022/08/27 04:14:08;;;;;;;5.07;4.38;;;;;;;;;;5005854;28;20196;-41
2022/08/27 04:16:39;;;;;;;6.18;4.20;;;;;;;;;;4999009;28;20199;-43
2022/08/27 04:19:07;;;;;;;6.47;3.90;;;;;;;;;;4995424;28;20610;-42
2022/08/27 04:21:34;;;;;;;4.18;3.85;;;;;;;;;;5006291;28;20680;-42
2022/08/27 04:24:01;;;;;;;5.13;4.45;;;;;;;;;;5003241;28;20242;-42
2022/08/27 04:26:29;;;;;;;5.20;4.70;;;;;;;;;;4999182;28;20329;-41
2022/08/27 04:28:57;;;;;;;6.10;4.72;;;;;;;;;;5007034;28;20203;-41
2022/08/27 04:31:24;;;;;;;8.30;4.50;;;;;;;;;;4993657;28;20218;-41
2022/08/27 04:33:53;;;;;;;7.85;5.00;;;;;;;;;;5006468;28;20204;-42
2022/08/27 04:36:21;;;;;;;5.22;4.72;;;;;;;;;;5002363;28;20207;-43
2022/08/27 04:38:48;;;;;;;8.20;5.23;;;;;;;;;;4998236;28;20562;-41
2022/08/27 04:41:22;;;;;;;5.28;4.18;;;;;;;;;;5010894;28;20658;-42
2022/08/27 04:43:49;;;;;;;5.85;5.18;;;;;;;;;;4999242;28;20206;-44
2022/08/27 04:46:20;;;;;;;4.60;4.13;;;;;;;;;;5004120;28;20214;-40
2022/08/27 04:48:47;;;;;;;4.95;4.55;;;;;;;;;;5007015;28;20223;-41
2022/08/27 04:51:15;;;;;;;5.65;4.97;;;;;;;;;;5004661;28;20211;-41
2022/08/27 04:53:42;;;;;;;7.38;5.55;;;;;;;;;;4991575;28;20200;-42
2022/08/27 04:56:13;;;;;;;6.07;5.23;;;;;;;;;;5006231;28;20225;-43
2022/08/27 04:58:40;;;;;;;6.37;5.43;;;;;;;;;;5000776;28;20450;-43
2022/08/27 05:01:07;;;;;;;6.77;6.07;;;;;;;;;;4995314;28;20219;-40
2022/08/27 05:03:34;;;;;;;8.60;7.17;;;;;;;;;;5004409;28;20211;-43
2022/08/27 05:06:03;;;;;;;7.57;6.80;;;;;;;;;;5007659;28;20212;-42
2022/08/27 05:08:31;;;;;;;7.67;6.90;;;;;;;;;;5009250;28;20230;-39
2022/08/27 05:10:59;;;;;;;10.57;7.70;;;;;;;;;;5013441;28;20218;-43
2022/08/27 05:13:26;;;;;;;11.47;8.13;;;;;;;;;;4998021;28;20235;-41
2022/08/27 05:15:59;;;;;;;9.53;7.83;;;;;;;;;;5009497;28;20234;-43
2022/08/27 05:18:26;;;;;;;12.48;8.95;;;;;;;;;;4996335;28;20234;-42
2022/08/27 05:20:53;;;;;;;11.10;8.77;;;;;;;;;;5011452;28;20226;-44
2022/08/27 05:23:21;;;;;;;13.95;9.45;;;;;;;;;;5004200;28;20267;-40
2022/08/27 05:25:50;;;;;;;11.65;8.32;;;;;;;;;;5008929;28;20207;-38
2022/08/27 05:28:20;;;;;;;13.30;9.90;;;;;;;;;;4994995;28;20219;-42
2022/08/27 05:30:48;;;;;;;20.37;12.37;;;;;;;;;;4995495;28;20646;-43
2022/08/27 05:33:17;;;;;;;13.98;9.90;;;;;;;;;;5003084;28;20225;-37
2022/08/27 05:35:44;;;;;;;10.98;9.65;;;;;;;;;;5007149;28;20212;-43
2022/08/27 05:38:11;;;;;;;11.57;10.35;;;;;;;;;;5001222;28;20235;-40
2022/08/27 05:40:39;;;;;;;13.20;10.55;;;;;;;;;;4994844;28;20577;-43
2022/08/27 05:43:07;;;;;;;13.23;11.17;;;;;;;;;;5012378;28;20222;-42
2022/08/27 05:45:40;;;;;;;16.10;11.45;;;;;;;;;;5012360;28;20203;-42
2022/08/27 05:48:07;;;;;;;17.17;11.43;;;;;;;;;;5001327;28;20226;-44
2022/08/27 05:50:34;;;;;;;13.07;10.73;;;;;;;;;;4997817;28;20206;-41
2022/08/27 05:53:01;;;;;;;15.30;11.37;;;;;;;;;;5008881;28;20199;-43
2022/08/27 05:55:28;;;;;;;14.32;11.93;;;;;;;;;;5000015;28;20204;-38
2022/08/27 05:57:55;;;;;;;14.57;11.47;;;;;;;;;;4994200;28;20318;-42
2022/08/27 06:03:10;;;;;;;13.77;11.43;;;;;;;;;;5004146;28;20214;-40
2022/08/27 06:05:37;;;;;;;15.75;12.50;;;;;;;;;;4993225;28;20235;-41
2022/08/27 06:08:04;;;;;;;17.63;13.03;;;;;;;;;;4992672;28;20232;-42
2022/08/27 06:10:32;;;;;;;13.60;11.30;;;;;;;;;;5006961;28;20761;-41
2022/08/27 06:12:59;;;;;;;16.65;12.98;;;;;;;;;;5005784;28;20195;-39
2022/08/27 06:15:28;;;;;;;16.30;13.23;;;;;;;;;;4996262;28;20227;-41
2022/08/27 06:17:55;;;;;;;16.30;13.30;;;;;;;;;;4997244;28;20470;-43
2022/08/27 06:20:22;;;;;;;18.77;13.80;;;;;;;;;;5002332;28;20218;-39
2022/08/27 06:22:49;;;;;;;18.43;14.23;;;;;;;;;;4999027;28;20206;-40
2022/08/27 06:25:16;;;;;;;18.48;13.98;;;;;;;;;;5007304;28;20226;-37
2022/08/27 06:27:44;;;;;;;20.88;14.20;;;;;;;;;;4995765;28;20227;-40
2022/08/27 06:30:11;;;;;;;17.52;12.23;;;;;;;;;;5003799;28;20208;-40
2022/08/27 06:32:40;;;;;;;19.90;14.63;;;;;;;;;;4999944;28;20207;-40
2022/08/27 06:35:07;;;;;;;15.43;11.82;;;;;;;;;;5002205;28;20211;-42
2022/08/27 06:37:35;;;;;;;18.23;14.67;;;;;;;;;;4992442;28;20228;-41
2022/08/27 06:40:02;;;;;;;15.53;13.03;;;;;;;;;;4999416;28;20226;-40
2022/08/27 06:42:30;;;;;;;17.70;14.15;;;;;;;;;;4993264;28;20199;-42
2022/08/27 06:44:57;;;;;;;20.08;15.73;;;;;;;;;;4993800;28;20218;-40
2022/08/27 06:47:24;;;;;;;18.83;15.13;;;;;;;;;;4993773;28;20250;-39
2022/08/27 06:49:53;;;;;;;19.27;14.13;;;;;;;;;;4995229;28;20303;-42
2022/08/27 06:52:20;;;;;;;16.70;13.88;;;;;;;;;;4996578;28;20338;-41
2022/08/27 06:54:49;;;;;;;16.57;14.03;;;;;;;;;;4998919;28;20214;-44
2022/08/27 06:57:16;;;;;;;19.52;14.18;;;;;;;;;;4993531;28;20224;-42
2022/08/27 06:59:43;;;;;;;22.07;17.10;;;;;;;;;;4993130;28;20216;-43
2022/08/27 07:02:11;;;;;;;21.90;13.85;;;;;;;;;;5000493;28;20203;-43
2022/08/27 07:04:38;;;;;;;19.65;14.63;;;;;;;;;;4998621;28;20200;-40
2022/08/27 07:07:06;;;;;;;17.55;14.25;;;;;;;;;;4992081;28;20224;-41
2022/08/27 07:09:34;;;;;;;26.83;17.37;;;;;;;;;;5008094;28;20210;-41
2022/08/27 07:12:01;;;;;;;22.23;16.97;;;;;;;;;;5003391;28;20211;-41
2022/08/27 07:14:28;;;;;;;25.20;17.48;;;;;;;;;;5003274;28;20210;-42
2022/08/27 07:24:37;;;;;;;26.73;17.23;;;;;;;;;;5000536;28;20219;-33
2022/08/27 07:27:04;;;;;;;22.30;17.63;;;;;;;;;;5001099;28;20226;-32
2022/08/27 07:29:31;;;;;;;19.58;16.40;;;;;;;;;;5007764;28;20197;-32
2022/08/27 07:31:59;;;;;;;26.08;17.38;;;;;;;;;;5010317;28;20213;-32
2022/08/27 07:34:26;;;;;;;22.60;17.23;;;;;;;;;;5011603;28;20218;-34
2022/08/27 07:36:53;;;;;;;21.80;14.87;;;;;;;;;;5004185;28;20223;-30
2022/08/27 07:39:20;;;;;;;18.38;14.55;;;;;;;;;;4998326;28;20219;-32
2022/08/27 07:44:33;;;;;;;23.92;18.80;;;;;;;;;;4998999;28;20214;-34
2022/08/27 07:47:00;;;;;;;24.90;19.53;;;;;;;;;;5003267;28;20222;-34
2022/08/27 07:49:28;;;;;;;27.92;20.52;;;;;;;;;;5003194;28;20286;-34
2022/08/27 07:51:56;;;;;;;24.52;17.17;;;;;;;;;;4995123;28;20207;-32
2022/08/27 07:54:23;;;;;;;27.53;19.10;;;;;;;;;;5003641;28;20207;-34
2022/08/27 07:56:52;;;;;;;25.63;18.95;;;;;;;;;;5001626;28;20214;-34
2022/08/27 07:59:19;;;;;;;32.07;19.57;;;;;;;;;;4999064;28;20238;-30
2022/08/27 08:01:47;;;;;;;25.73;17.27;;;;;;;;;;4987795;28;20214;-32
2022/08/27 08:04:14;;;;;;;24.63;16.40;;;;;;;;;;5002143;28;20218;-33
2022/08/27 08:06:42;;;;;;;30.15;18.83;;;;;;;;;;4994772;28;20211;-33
2022/08/27 08:09:09;;;;;;;24.65;17.90;;;;;;;;;;4992087;28;20215;-32
2022/08/27 08:11:36;;;;;;;24.67;18.02;;;;;;;;;;4990289;28;20196;-29
2022/08/27 08:14:05;;;;;;;29.13;19.25;;;;;;;;;;5000996;28;20206;-32
2022/08/27 08:16:32;;;;;;;25.17;18.13;;;;;;;;;;4993512;28;20204;-34
2022/08/27 08:19:00;;;;;;;30.83;19.50;;;;;;;;;;4991959;28;20251;-31
2022/08/27 08:21:28;;;;;;;27.40;19.00;;;;;;;;;;4991425;28;20215;-32
2022/08/27 08:23:56;;;;;;;26.17;19.10;;;;;;;;;;4997839;28;20219;-31
2022/08/27 08:26:23;;;;;;;30.08;19.85;;;;;;;;;;4995847;28;20214;-33
2022/08/27 08:28:50;;;;;;;27.43;19.47;;;;;;;;;;4998515;28;20285;-31
2022/08/27 08:31:19;;;;;;;25.77;18.98;;;;;;;;;;4994898;28;20199;-32
2022/08/27 08:33:47;;;;;;;23.27;17.93;;;;;;;;;;5000196;28;20204;-34
2022/08/27 08:36:15;;;;;;;28.40;19.53;;;;;;;;;;4989601;28;20232;-32
2022/08/27 08:38:43;;;;;;;23.13;18.20;;;;;;;;;;4990003;28;20250;-33
2022/08/27 08:41:23;;;;;;;28.20;18.50;;;;;;;;;;4997332;28;20406;-31
2022/08/27 08:43:50;;;;;;;26.85;18.98;;;;;;;;;;4992395;28;20192;-33
2022/08/27 08:46:26;;;;;;;25.83;18.43;;;;;;;;;;4993886;28;20239;-33
2022/08/27 08:48:56;;;;;;;31.57;20.27;;;;;;;;;;5004810;28;20226;-28
2022/08/27 08:51:25;;;;;;;27.30;18.50;;;;;;;;;;4995097;28;20196;-30
2022/08/27 08:53:54;;;;;;;22.90;17.20;;;;;;;;;;4998648;28;20233;-30
2022/08/27 08:56:23;;;;;;;29.73;20.77;;;;;;;;;;5013536;28;20211;-32
2022/08/27 08:58:53;;;;;;;28.20;18.73;;;;;;;;;;5009054;28;20230;-31
2022/08/27 09:01:23;;;;;;;24.90;18.30;;;;;;;;;;4998873;28;20203;-30
2022/08/27 09:03:52;;;;;;;26.77;18.20;;;;;;;;;;5003029;28;20208;-31
2022/08/27 09:06:21;;;;;;;27.30;19.53;;;;;;;;;;4995801;28;20211;-32
2022/08/27 09:08:48;;;;;;;23.75;17.88;;;;;;;;;;4997171;28;20227;-30
2022/08/27 09:11:20;;;;;;;23.20;16.53;;;;;;;;;;5006093;28;20199;-30
2022/08/27 09:13:49;;;;;;;24.67;17.83;;;;;;;;;;4999590;28;20196;-33
2022/08/27 09:16:17;;;;;;;22.42;15.25;;;;;;;;;;4994843;28;20212;-31
2022/08/27 09:18:45;;;;;;;24.83;18.83;;;;;;;;;;5006785;28;20273;-31
2022/08/27 09:21:18;;;;;;;21.80;17.87;;;;;;;;;;5001108;28;20210;-32
2022/08/27 09:23:53;;;;;;;25.40;18.03;;;;;;;;;;4999169;28;20215;-30
2022/08/27 09:26:21;;;;;;;24.97;17.40;;;;;;;;;;5006462;28;20203;-30
2022/08/27 09:31:39;;;;;;;21.98;16.92;;;;;;;;;;4993141;28;20239;-32
2022/08/27 09:34:08;;;;;;;22.50;17.23;;;;;;;;;;5005906;28;20225;-33
2022/08/27 09:36:35;;;;;;;21.70;17.57;;;;;;;;;;4995091;28;20208;-32
2022/08/27 09:39:06;;;;;;;25.67;16.37;;;;;;;;;;5001419;28;20239;-32
2022/08/27 09:41:36;;;;;;;26.03;18.80;;;;;;;;;;5005359;28;20230;-31
2022/08/27 09:44:11;;;;;;;22.20;16.23;;;;;;;;;;4998870;28;20207;-34
2022/08/27 09:46:38;;;;;;;26.80;18.00;;;;;;;;;;4996354;28;20246;-30
2022/08/27 09:49:12;;;;;;;22.00;16.07;;;;;;;;;;4993714;28;20203;-31
2022/08/27 09:51:41;;;;;;;21.40;16.90;;;;;;;;;;4999576;28;20674;-30
2022/08/27 09:54:08;;;;;;;19.63;15.13;;;;;;;;;;4996778;28;20211;-31
2022/08/27 09:56:36;;;;;;;22.27;14.90;;;;;;;;;;5007998;28;20230;-32
2022/08/27 09:59:05;;;;;;;22.03;16.57;;;;;;;;;;4996505;28;20290;-32
2022/08/27 10:01:34;;;;;;;23.03;17.20;;;;;;;;;;4998930;28;20214;-31
2022/08/27 10:04:06;;;;;;;16.50;14.13;;;;;;;;;;5001685;28;20208;-32
2022/08/27 10:06:34;;;;;;;23.67;14.13;;;;;;;;;;4994487;28;20212;-31
2022/08/27 10:09:06;;;;;;;15.27;12.57;;;;;;;;;;4996244;28;20203;-32
2022/08/27 10:11:38;;;;;;;14.97;11.50;;;;;;;;;;4993663;28;20396;-32
2022/08/27 10:14:11;;;;;;;16.87;11.67;;;;;;;;;;5005054;28;20214;-31
2022/08/27 10:16:56;;;;;;;10.65;8.20;;;;;;;;;;4997881;28;20213;-32
2022/08/27 10:19:34;;;;;;;8.23;7.03;;;;;;;;;;4983606;28;20211;-31
2022/08/27 10:22:07;;;;;;;10.03;6.67;;;;;;;;;;4998345;28;20286;-31
2022/08/27 10:24:47;;;;;;;7.45;6.68;;;;;;;;;;5003254;28;20214;-28
2022/08/27 10:27:18;;;;;;;7.22;5.72;;;;;;;;;;4996536;28;20223;-33
2022/08/27 10:29:49;;;;;;;4.73;4.17;;;;;;;;;;5007840;28;20188;-31
2022/08/27 10:32:24;;;;;;;5.47;4.97;;;;;;;;;;4992229;28;20287;-32
2022/08/27 10:34:57;;;;;;;4.80;4.40;;;;;;;;;;4997875;28;20207;-31
2022/08/27 10:37:32;;;;;;;6.43;5.20;;;;;;;;;;5002168;28;20223;-33
2022/08/27 10:40:03;;;;;;;7.77;5.53;;;;;;;;;;5000646;28;20234;-34
2022/08/27 10:42:32;;;;;;;7.03;5.33;;;;;;;;;;4993450;28;20203;-31
2022/08/27 10:45:14;;;;;;;5.80;5.25;;;;;;;;;;4993358;28;20211;-31
2022/08/27 10:47:54;;;;;;;6.53;4.65;;;;;;;;;;4994699;28;20231;-30
2022/08/27 10:50:27;;;;;;;7.70;4.47;;;;;;;;;;5004022;28;20205;-32
2022/08/27 10:52:59;;;;;;;5.65;4.45;;;;;;;;;;5003787;28;20204;-29
2022/08/27 10:55:30;;;;;;;7.17;4.30;;;;;;;;;;5004804;28;20207;-32
2022/08/27 10:58:06;;;;;;;4.70;4.20;;;;;;;;;;5007783;28;20223;-33
2022/08/27 11:00:38;;;;;;;6.87;4.17;;;;;;;;;;5005175;28;20223;-29
2022/08/27 11:03:09;;;;;;;5.57;3.90;;;;;;;;;;4993079;28;20234;-30
2022/08/27 11:05:38;;;;;;;6.30;4.80;;;;;;;;;;4999286;28;20214;-30
2022/08/27 11:08:10;;;;;;;4.25;3.85;;;;;;;;;;4998633;28;20238;-30
2022/08/27 11:10:40;;;;;;;4.97;4.27;;;;;;;;;;5010249;28;20210;-32
2022/08/27 11:13:09;;;;;;;6.43;4.30;;;;;;;;;;5006866;28;20207;-32
2022/08/27 11:15:37;;;;;;;4.90;4.00;;;;;;;;;;5012444;28;20202;-32
2022/08/27 11:18:07;;;;;;;5.13;4.33;;;;;;;;;;4998265;28;20245;-29
2022/08/27 11:20:36;;;;;;;5.68;3.83;;;;;;;;;;4985815;28;20306;-32
2022/08/27 11:23:06;;;;;;;5.70;4.17;;;;;;;;;;4993200;28;20215;-32
2022/08/27 11:25:40;;;;;;;5.07;3.93;;;;;;;;;;5002782;28;20203;-29
2022/08/27 11:28:08;;;;;;;4.27;3.80;;;;;;;;;;5010487;28;20223;-31
2022/08/27 11:30:39;;;;;;;5.70;3.77;;;;;;;;;;5012642;28;20303;-33
2022/08/27 11:33:10;;;;;;;4.30;3.90;;;;;;;;;;4998563;28;20210;-34
2022/08/27 11:35:42;;;;;;;5.15;3.97;;;;;;;;;;4998680;28;20198;-31
2022/08/27 11:38:26;;;;;;;5.83;4.37;;;;;;;;;;4996375;28;20222;-30
2022/08/27 11:41:00;;;;;;;5.70;4.15;;;;;;;;;;5000914;28;20287;-33
2022/08/27 11:43:29;;;;;;;4.65;4.25;;;;;;;;;;4992889;28;20220;-31
2022/08/27 11:45:58;;;;;;;4.63;4.00;;;;;;;;;;4991353;28;20207;-32
2022/08/27 11:48:25;;;;;;;4.35;3.95;;;;;;;;;;5003584;28;20229;-30
2022/08/27 11:50:54;;;;;;;5.28;4.78;;;;;;;;;;5000941;28;20207;-34
2022/08/27 11:53:24;;;;;;;5.07;3.93;;;;;;;;;;4993291;28;20271;-32
2022/08/27 11:55:52;;;;;;;4.38;3.97;;;;;;;;;;4996718;28;20199;-34
2022/08/27 11:58:33;;;;;;;5.90;3.30;;;;;;;;;;5010615;28;20223;-32
2022/08/27 12:01:01;;;;;;;3.63;3.28;;;;;;;;;;4996919;28;20226;-35
2022/08/27 12:03:31;;;;;;;4.60;3.17;;;;;;;;;;5007763;28;20211;-34
2022/08/27 12:06:10;;;;;;;3.53;3.20;;;;;;;;;;5009371;28;20203;-33
2022/08/27 12:08:37;;;;;;;3.23;2.93;;;;;;;;;;4995922;28;20227;-32
2022/08/27 12:11:12;;;;;;;3.08;2.88;;;;;;;;;;5009081;28;20206;-34
2022/08/27 12:13:42;;;;;;;4.77;3.07;;;;;;;;;;4995905;28;20195;-35
2022/08/27 12:16:16;;;;;;;3.37;3.07;;;;;;;;;;4994742;28;20200;-30
2022/08/27 12:18:52;;;;;;;3.28;3.03;;;;;;;;;;5010701;28;20230;-30
2022/08/27 12:21:24;;;;;;;3.92;3.17;;;;;;;;;;5005077;28;20218;-34
2022/08/27 12:24:01;;;;;;;3.47;3.20;;;;;;;;;;5004366;28;20214;-33
2022/08/27 12:26:31;;;;;;;3.80;3.50;;;;;;;;;;4998903;28;20322;-33
2022/08/27 12:29:13;;;;;;;3.67;3.33;;;;;;;;;;4996467;28;20204;-31
2022/08/27 12:31:42;;;;;;;4.63;3.47;;;;;;;;;;4995577;28;20203;-32
2022/08/27 12:34:15;;;;;;;6.23;3.70;;;;;;;;;;4997084;28;20214;-32
2022/08/27 12:36:42;;;;;;;8.70;3.72;;;;;;;;;;5002473;28;20195;-32
2022/08/27 12:39:12;;;;;;;4.88;3.50;;;;;;;;;;5009301;28;20207;-33
2022/08/27 12:41:44;;;;;;;3.83;3.43;;;;;;;;;;5010039;28;20215;-31
2022/08/27 12:44:13;;;;;;;3.67;3.37;;;;;;;;;;5008052;28;20216;-31
2022/08/27 12:46:46;;;;;;;4.03;3.57;;;;;;;;;;4997245;28;20212;-30
2022/08/27 12:49:16;;;;;;;3.97;3.60;;;;;;;;;;5004214;28;20188;-32
2022/08/27 12:51:45;;;;;;;3.97;3.60;;;;;;;;;;4996587;28;20215;-30
2022/08/27 12:54:20;;;;;;;3.97;3.60;;;;;;;;;;4999139;28;20208;-30
2022/08/27 12:56:57;;;;;;;5.13;4.00;;;;;;;;;;5011631;28;20187;-31
2022/08/27 12:59:38;;;;;;;8.57;4.60;;;;;;;;;;4996215;28;20359;-30
2022/08/27 13:02:12;;;;;;;4.47;4.07;;;;;;;;;;4995116;28;20242;-30
2022/08/27 13:04:40;;;;;;;5.57;3.97;;;;;;;;;;5000951;28;20199;-28
2022/08/27 13:07:07;;;;;;;4.07;3.67;;;;;;;;;;4999703;28;20226;-28
2022/08/27 13:09:35;;;;;;;4.45;4.05;;;;;;;;;;5003083;28;20215;-27
2022/08/27 13:12:04;;;;;;;4.17;3.77;;;;;;;;;;4994345;28;20207;-29
2022/08/27 13:14:36;;;;;;;5.15;4.65;;;;;;;;;;4996291;28;20214;-30
2022/08/27 13:17:05;;;;;;;6.15;4.80;;;;;;;;;;4995287;28;20239;-32
2022/08/27 13:19:35;;;;;;;5.20;4.03;;;;;;;;;;4994989;28;20218;-29
2022/08/27 13:27:06;;;;;;;4.70;4.30;;;;;;;;;;4991169;28;20266;-36
2022/08/27 13:29:34;;;;;;;5.60;4.37;;;;;;;;;;4992653;28;20214;-35
2022/08/27 13:32:01;;;;;;;4.93;3.93;;;;;;;;;;4984807;28;20212;-34
2022/08/27 13:34:32;;;;;;;4.00;3.70;;;;;;;;;;4991248;28;20203;-34
2022/08/27 13:37:02;;;;;;;4.63;4.15;;;;;;;;;;4981419;28;20216;-33
2022/08/27 13:39:30;;;;;;;5.30;4.23;;;;;;;;;;4974510;28;20201;-34
2022/08/27 13:41:59;;;;;;;5.07;4.07;;;;;;;;;;4980136;28;20221;-34
2022/08/27 13:44:27;;;;;;;4.73;4.07;;;;;;;;;;4988623;28;20207;-36
2022/08/27 13:46:59;;;;;;;4.17;3.77;;;;;;;;;;4985921;28;20230;-32
2022/08/27 13:49:27;;;;;;;3.42;3.13;;;;;;;;;;4983040;28;20264;-33
2022/08/27 13:51:59;;;;;;;3.50;3.20;;;;;;;;;;4979626;28;20201;-34
2022/08/27 13:54:27;;;;;;;5.00;3.60;;;;;;;;;;4980266;28;20204;-36
2022/08/27 13:57:02;;;;;;;4.97;3.77;;;;;;;;;;4983210;28;20250;-36
2022/08/27 13:59:30;;;;;;;3.93;3.33;;;;;;;;;;4991154;28;20207;-33
2022/08/27 14:01:58;;;;;;;8.43;3.60;;;;;;;;;;4982159;28;20512;-35
2022/08/27 14:04:27;;;;;;;3.40;3.10;;;;;;;;;;4975418;28;20215;-36
2022/08/27 14:06:54;;;;;;;4.00;3.70;;;;;;;;;;4980496;28;20243;-33
2022/08/27 14:09:24;;;;;;;3.77;3.40;;;;;;;;;;4978286;28;20216;-31
2022/08/27 14:12:00;;;;;;;3.80;3.08;;;;;;;;;;4988544;28;20629;-34
2022/08/27 14:14:27;;;;;;;3.37;3.07;;;;;;;;;;4991651;28;20338;-36
2022/08/27 14:16:59;;;;;;;3.75;3.45;;;;;;;;;;4986458;28;20230;-33
2022/08/27 14:19:27;;;;;;;5.17;3.70;;;;;;;;;;4982226;28;20717;-36
2022/08/27 14:21:55;;;;;;;4.13;3.40;;;;;;;;;;4982314;28;20231;-33
2022/08/27 14:24:22;;;;;;;3.97;3.50;;;;;;;;;;4978340;28;20203;-35
2022/08/27 14:26:50;;;;;;;4.20;3.47;;;;;;;;;;4984356;28;20235;-34
2022/08/27 14:29:18;;;;;;;3.83;3.53;;;;;;;;;;4982069;28;20222;-34
2022/08/27 14:31:46;;;;;;;3.57;3.20;;;;;;;;;;4979590;28;20200;-34
2022/08/27 14:34:13;;;;;;;4.13;3.20;;;;;;;;;;4982396;28;20200;-37
2022/08/27 14:36:40;;;;;;;3.90;3.50;;;;;;;;;;4980198;28;20208;-34
2022/08/27 14:39:08;;;;;;;4.20;3.80;;;;;;;;;;4976710;28;20211;-32
2022/08/27 14:41:35;;;;;;;4.67;4.17;;;;;;;;;;4985737;28;20235;-35
2022/08/27 14:44:03;;;;;;;5.30;4.28;;;;;;;;;;4989858;28;20215;-34
2022/08/27 14:46:32;;;;;;;4.90;4.40;;;;;;;;;;4982789;28;20205;-35
2022/08/27 14:49:00;;;;;;;5.90;4.28;;;;;;;;;;4971701;28;20211;-36
2022/08/27 14:51:28;;;;;;;4.60;3.83;;;;;;;;;;4986082;28;20202;-34
2022/08/27 14:53:56;;;;;;;6.13;4.18;;;;;;;;;;4979185;28;20211;-34
2022/08/27 14:56:25;;;;;;;5.05;4.55;;;;;;;;;;4980905;28;20200;-34
2022/08/27 14:58:53;;;;;;;4.80;4.40;;;;;;;;;;4986265;28;20223;-33
2022/08/27 15:01:22;;;;;;;4.87;4.37;;;;;;;;;;4981230;28;20232;-34
2022/08/27 15:03:51;;;;;;;5.43;4.93;;;;;;;;;;4989326;28;20215;-32
2022/08/27 15:06:20;;;;;;;5.38;4.78;;;;;;;;;;4982070;28;20306;-33
2022/08/27 15:08:47;;;;;;;5.25;4.40;;;;;;;;;;4977039;28;20232;-35
2022/08/27 15:11:16;;;;;;;4.85;3.92;;;;;;;;;;4982458;28;20204;-34
2022/08/27 15:13:43;;;;;;;4.47;4.07;;;;;;;;;;4987772;28;20697;-37
2022/08/27 15:16:10;;;;;;;4.88;4.32;;;;;;;;;;4988164;28;20218;-36